Terminal Aerodrome Forecast
Issued by NWS

Home | Current Version | Previous Version | Text Only | Print | Product List | Glossary On
Versions: 1 2 3 4 5 6 7 8 9 10 11 12 13 14
164
FTUS45 KPSR 252335
TAFIPL
TAF
KIPL 252335Z 2600/2624 02016G26KT P6SM SKC
     FM260200 08006KT P6SM SKC
     FM261700 03012G20KT P6SM SCT200=

USA.gov is the U.S. government's official web portal to all federal, state and local government web resources and services.